Time;durP1;ratioP1;P1;durP2;ratioP2;P2;SDS_P1;SDS_P2;PMS_P1;PMS_P2;Temp;Humidity;BMP_temperature;BMP_pressure;BME280_temperature;BME280_humidity;BME280_pressure;Samples;Min_cycle;Max_cycle;Signal;HPM_P1;HPM_P2
2023/08/26 00:00:52;;;;;;;17.27;12.63;;;;;;;;;;5029907;28;20224;-64
2023/08/26 00:03:18;;;;;;;27.50;12.77;;;;;;;;;;5029668;28;20755;-65
2023/08/26 00:05:45;;;;;;;19.77;12.63;;;;;;;;;;5029641;28;20253;-64
2023/08/26 00:08:11;;;;;;;15.48;12.23;;;;;;;;;;5029766;28;20682;-65
2023/08/26 00:10:38;;;;;;;17.95;12.93;;;;;;;;;;5029589;28;20708;-65
2023/08/26 00:13:06;;;;;;;19.65;13.45;;;;;;;;;;5029854;28;20237;-65
2023/08/26 00:15:32;;;;;;;20.88;13.13;;;;;;;;;;5029681;28;20619;-64
2023/08/26 00:17:59;;;;;;;13.73;12.43;;;;;;;;;;5029641;28;20261;-65
2023/08/26 00:20:25;;;;;;;17.15;13.60;;;;;;;;;;5029561;28;20207;-64
2023/08/26 00:22:52;;;;;;;13.48;12.07;;;;;;;;;;5029752;28;20210;-64
2023/08/26 00:25:18;;;;;;;14.60;13.15;;;;;;;;;;5029827;28;20204;-64
2023/08/26 00:27:45;;;;;;;13.65;12.45;;;;;;;;;;5029027;28;20226;-64
2023/08/26 00:30:13;;;;;;;13.18;11.88;;;;;;;;;;5029456;28;20658;-65
2023/08/26 00:32:39;;;;;;;12.55;11.45;;;;;;;;;;5028999;28;20208;-65
2023/08/26 00:35:06;;;;;;;14.10;12.90;;;;;;;;;;5029873;28;20223;-65
2023/08/26 00:37:32;;;;;;;14.18;13.02;;;;;;;;;;5029618;28;20203;-65
2023/08/26 00:39:59;;;;;;;14.50;12.50;;;;;;;;;;5029644;28;20227;-65
2023/08/26 00:42:25;;;;;;;14.40;12.90;;;;;;;;;;5029284;28;20336;-65
2023/08/26 00:44:51;;;;;;;20.42;13.77;;;;;;;;;;5029765;28;20204;-65
2023/08/26 00:47:19;;;;;;;12.98;11.88;;;;;;;;;;5028416;28;20289;-65
2023/08/26 00:49:46;;;;;;;14.25;12.80;;;;;;;;;;5029431;28;20685;-65
2023/08/26 00:52:12;;;;;;;17.05;13.93;;;;;;;;;;5021601;28;20652;-65
2023/08/26 00:54:39;;;;;;;15.98;12.85;;;;;;;;;;5027481;28;20235;-65
2023/08/26 00:57:05;;;;;;;13.48;12.40;;;;;;;;;;5027736;28;20232;-65
2023/08/26 00:59:32;;;;;;;14.15;12.77;;;;;;;;;;5027859;28;20262;-65
2023/08/26 01:02:00;;;;;;;14.75;13.18;;;;;;;;;;5027420;28;20246;-65
2023/08/26 01:04:28;;;;;;;13.38;12.07;;;;;;;;;;5027605;28;20685;-65
2023/08/26 01:06:55;;;;;;;18.67;12.65;;;;;;;;;;5027472;28;20316;-68
2023/08/26 01:09:21;;;;;;;13.48;12.38;;;;;;;;;;5027586;28;20199;-65
2023/08/26 01:11:52;;;;;;;14.50;12.30;;;;;;;;;;5027649;28;20195;-64
2023/08/26 01:14:23;;;;;;;15.63;13.90;;;;;;;;;;5027299;28;20952;-65
2023/08/26 01:16:49;;;;;;;13.88;12.65;;;;;;;;;;5026792;28;20231;-64
2023/08/26 01:19:20;;;;;;;18.20;12.85;;;;;;;;;;5029195;28;20200;-65
2023/08/26 01:21:50;;;;;;;14.13;12.52;;;;;;;;;;5029424;28;20214;-65
2023/08/26 01:24:18;;;;;;;13.63;12.30;;;;;;;;;;5028787;28;20212;-65
2023/08/26 01:26:45;;;;;;;15.32;13.07;;;;;;;;;;5029300;28;20585;-65
2023/08/26 01:29:11;;;;;;;13.52;11.98;;;;;;;;;;5028742;28;20635;-65
2023/08/26 01:31:38;;;;;;;13.60;12.27;;;;;;;;;;5029589;28;20208;-64
2023/08/26 01:34:10;;;;;;;14.93;12.18;;;;;;;;;;5031802;28;20212;-65
2023/08/26 01:36:39;;;;;;;13.18;11.93;;;;;;;;;;5033502;28;20246;-65
2023/08/26 01:39:05;;;;;;;13.27;12.13;;;;;;;;;;5032466;28;20297;-65
2023/08/26 01:41:34;;;;;;;18.55;12.98;;;;;;;;;;5033175;28;20257;-65
2023/08/26 01:44:00;;;;;;;13.27;12.15;;;;;;;;;;5032353;28;20248;-65
2023/08/26 01:46:36;;;;;;;12.80;11.43;;;;;;;;;;5032813;28;20794;-65
2023/08/26 01:49:03;;;;;;;12.98;11.68;;;;;;;;;;5032361;28;20199;-65
2023/08/26 01:51:30;;;;;;;12.32;11.30;;;;;;;;;;5033097;28;20226;-65
2023/08/26 01:53:56;;;;;;;12.95;11.85;;;;;;;;;;5032360;28;20783;-64
2023/08/26 01:56:22;;;;;;;12.68;11.48;;;;;;;;;;5032471;28;20246;-65
2023/08/26 01:58:50;;;;;;;14.98;11.77;;;;;;;;;;5032713;28;20744;-65
2023/08/26 02:01:17;;;;;;;11.95;10.95;;;;;;;;;;5032397;28;20204;-64
2023/08/26 02:03:43;;;;;;;12.93;11.80;;;;;;;;;;5032875;28;20257;-64
2023/08/26 02:06:10;;;;;;;12.52;11.43;;;;;;;;;;5032713;28;20227;-64
2023/08/26 02:08:36;;;;;;;12.88;11.45;;;;;;;;;;5032236;28;20320;-65
2023/08/26 02:11:03;;;;;;;12.43;11.25;;;;;;;;;;5032911;28;20269;-65
2023/08/26 02:13:29;;;;;;;13.60;11.18;;;;;;;;;;5032215;28;20246;-63
2023/08/26 02:15:57;;;;;;;13.13;11.52;;;;;;;;;;5031316;28;20222;-65
2023/08/26 02:18:23;;;;;;;12.63;11.68;;;;;;;;;;5032218;28;20261;-65
2023/08/26 02:20:50;;;;;;;11.80;10.80;;;;;;;;;;5032025;28;20200;-64
2023/08/26 02:23:16;;;;;;;13.00;11.63;;;;;;;;;;5032402;28;20231;-65
2023/08/26 02:25:43;;;;;;;13.95;12.65;;;;;;;;;;5031583;28;20208;-65
2023/08/26 02:28:09;;;;;;;13.43;11.80;;;;;;;;;;5032339;28;20286;-64
2023/08/26 02:30:36;;;;;;;13.82;12.63;;;;;;;;;;5031611;28;20211;-64
2023/08/26 02:33:03;;;;;;;12.18;11.07;;;;;;;;;;5032043;28;20232;-65
2023/08/26 02:35:30;;;;;;;16.40;11.98;;;;;;;;;;5031773;28;20242;-65
2023/08/26 02:37:57;;;;;;;14.55;13.05;;;;;;;;;;5031968;28;20254;-65
2023/08/26 02:40:23;;;;;;;13.75;12.55;;;;;;;;;;5031734;28;20281;-64
2023/08/26 02:42:49;;;;;;;13.15;11.95;;;;;;;;;;5031477;28;20239;-65
2023/08/26 02:45:16;;;;;;;13.50;12.40;;;;;;;;;;5031331;28;20625;-64
2023/08/26 02:47:42;;;;;;;14.50;11.93;;;;;;;;;;5031068;28;20289;-65
2023/08/26 02:50:10;;;;;;;14.18;12.80;;;;;;;;;;5031708;28;20273;-65
2023/08/26 02:52:37;;;;;;;15.52;14.00;;;;;;;;;;5031221;28;20721;-65
2023/08/26 02:55:04;;;;;;;13.70;12.60;;;;;;;;;;5031669;28;20228;-65
2023/08/26 02:57:30;;;;;;;19.20;13.48;;;;;;;;;;5031310;28;20204;-64
2023/08/26 02:59:56;;;;;;;13.60;12.40;;;;;;;;;;5031456;28;20204;-64
2023/08/26 03:02:24;;;;;;;13.95;12.57;;;;;;;;;;5031797;28;20215;-64
2023/08/26 03:04:51;;;;;;;15.98;14.52;;;;;;;;;;5032273;28;20231;-65
2023/08/26 03:07:18;;;;;;;13.45;12.18;;;;;;;;;;5031689;28;20195;-65
2023/08/26 03:09:45;;;;;;;13.50;12.23;;;;;;;;;;5031729;28;20204;-65
2023/08/26 03:12:11;;;;;;;15.70;13.27;;;;;;;;;;5031268;28;20231;-65
2023/08/26 03:14:38;;;;;;;14.27;12.88;;;;;;;;;;5031667;28;20693;-65
2023/08/26 03:17:04;;;;;;;13.27;11.98;;;;;;;;;;5031217;28;20211;-64
2023/08/26 03:19:31;;;;;;;14.63;13.15;;;;;;;;;;5031414;28;20678;-64
2023/08/26 03:21:57;;;;;;;14.45;12.93;;;;;;;;;;5031105;28;20594;-64
2023/08/26 03:24:26;;;;;;;13.93;12.77;;;;;;;;;;5031299;28;20636;-65
2023/08/26 03:26:53;;;;;;;14.60;13.27;;;;;;;;;;5030848;28;20204;-64
2023/08/26 03:29:19;;;;;;;20.35;12.68;;;;;;;;;;5031523;28;20255;-64
2023/08/26 03:31:46;;;;;;;13.73;12.25;;;;;;;;;;5030701;28;20204;-64
2023/08/26 03:34:12;;;;;;;14.45;12.38;;;;;;;;;;5031437;28;20227;-64
2023/08/26 03:36:39;;;;;;;13.68;12.52;;;;;;;;;;5030990;28;20219;-65
2023/08/26 03:39:05;;;;;;;14.00;12.32;;;;;;;;;;5031210;28;20204;-64
2023/08/26 03:41:33;;;;;;;13.95;12.50;;;;;;;;;;5030912;28;20200;-64
2023/08/26 03:43:59;;;;;;;16.90;13.18;;;;;;;;;;5030847;28;20240;-65
2023/08/26 03:46:26;;;;;;;14.05;12.73;;;;;;;;;;5030599;28;20263;-64
2023/08/26 03:48:53;;;;;;;15.77;13.48;;;;;;;;;;5031079;28;20281;-65
2023/08/26 03:51:19;;;;;;;16.73;14.02;;;;;;;;;;5030463;28;20238;-64
2023/08/26 03:53:46;;;;;;;14.65;13.30;;;;;;;;;;5031094;28;20348;-65
2023/08/26 03:56:13;;;;;;;15.40;13.90;;;;;;;;;;5029763;28;20207;-64
2023/08/26 03:58:41;;;;;;;15.05;13.55;;;;;;;;;;5030517;28;20684;-65
2023/08/26 04:01:07;;;;;;;16.92;14.15;;;;;;;;;;5030718;28;20231;-65
2023/08/26 04:03:34;;;;;;;15.38;13.50;;;;;;;;;;5030686;28;20214;-65
2023/08/26 04:06:01;;;;;;;14.30;12.80;;;;;;;;;;5030486;28;20299;-64
2023/08/26 04:08:28;;;;;;;13.88;12.65;;;;;;;;;;5030057;28;20255;-65
2023/08/26 04:10:55;;;;;;;15.05;13.18;;;;;;;;;;5030343;28;20234;-65
2023/08/26 04:13:23;;;;;;;19.73;14.02;;;;;;;;;;5030270;28;20749;-65
2023/08/26 04:15:52;;;;;;;14.23;13.02;;;;;;;;;;5030076;28;20674;-64
2023/08/26 04:18:19;;;;;;;16.05;12.32;;;;;;;;;;5030617;28;20254;-64
2023/08/26 04:20:46;;;;;;;20.00;14.18;;;;;;;;;;5029764;28;20269;-65
2023/08/26 04:23:12;;;;;;;15.25;13.20;;;;;;;;;;5030509;28;20206;-64
2023/08/26 04:25:39;;;;;;;16.20;12.85;;;;;;;;;;5029458;28;20231;-65
2023/08/26 04:28:05;;;;;;;19.80;13.32;;;;;;;;;;5030404;28;20227;-65
2023/08/26 04:30:32;;;;;;;12.90;11.70;;;;;;;;;;5029970;28;20199;-64
2023/08/26 04:33:00;;;;;;;14.45;12.98;;;;;;;;;;5030269;28;20334;-65
2023/08/26 04:35:27;;;;;;;13.70;12.60;;;;;;;;;;5029944;28;20257;-65
2023/08/26 04:37:53;;;;;;;16.75;13.57;;;;;;;;;;5030116;28;20199;-65
2023/08/26 04:40:20;;;;;;;17.00;12.63;;;;;;;;;;5029544;28;20656;-65
2023/08/26 04:42:46;;;;;;;14.90;13.65;;;;;;;;;;5029861;28;20247;-65
2023/08/26 04:45:15;;;;;;;13.85;12.65;;;;;;;;;;5029892;28;20200;-65
2023/08/26 04:47:41;;;;;;;13.98;12.85;;;;;;;;;;5029467;28;20251;-65
2023/08/26 04:50:11;;;;;;;13.60;12.45;;;;;;;;;;5029802;28;20207;-65
2023/08/26 04:52:39;;;;;;;15.32;13.82;;;;;;;;;;5021682;28;20228;-65
2023/08/26 04:55:06;;;;;;;14.55;13.25;;;;;;;;;;5028800;28;20207;-64
2023/08/26 04:57:33;;;;;;;14.43;13.13;;;;;;;;;;5029834;28;20207;-65
2023/08/26 04:59:59;;;;;;;13.77;12.40;;;;;;;;;;5028266;28;20286;-65
2023/08/26 05:02:26;;;;;;;14.30;12.70;;;;;;;;;;5027993;28;20239;-65
2023/08/26 05:04:53;;;;;;;16.08;14.07;;;;;;;;;;5028254;28;20269;-65
2023/08/26 05:07:21;;;;;;;16.55;14.90;;;;;;;;;;5028435;28;20709;-65
2023/08/26 05:09:47;;;;;;;16.73;15.02;;;;;;;;;;5032217;28;20296;-65
2023/08/26 05:12:15;;;;;;;16.02;14.38;;;;;;;;;;5031574;28;20763;-65
2023/08/26 05:14:41;;;;;;;15.18;13.75;;;;;;;;;;5032086;28;20207;-65
2023/08/26 05:17:08;;;;;;;15.43;13.93;;;;;;;;;;5033579;28;20195;-65
2023/08/26 05:19:34;;;;;;;15.00;13.52;;;;;;;;;;5033618;28;20257;-65
2023/08/26 05:22:01;;;;;;;17.25;12.98;;;;;;;;;;5033524;28;20196;-65
2023/08/26 05:24:30;;;;;;;18.92;12.75;;;;;;;;;;5032950;28;20212;-64
2023/08/26 05:26:57;;;;;;;15.32;13.77;;;;;;;;;;5033136;28;20204;-65
2023/08/26 05:29:23;;;;;;;15.20;12.63;;;;;;;;;;5033449;28;20313;-65
2023/08/26 05:31:50;;;;;;;15.70;13.00;;;;;;;;;;5033220;28;20242;-65
2023/08/26 05:34:16;;;;;;;19.85;13.48;;;;;;;;;;5033463;28;20204;-64
2023/08/26 05:36:42;;;;;;;15.15;13.63;;;;;;;;;;5032962;28;20654;-64
2023/08/26 05:39:09;;;;;;;14.45;12.73;;;;;;;;;;5032880;28;20589;-64
2023/08/26 05:41:40;;;;;;;14.45;13.02;;;;;;;;;;5033634;28;21051;-64
2023/08/26 05:44:06;;;;;;;18.38;13.43;;;;;;;;;;5033299;28;20289;-65
2023/08/26 05:46:33;;;;;;;13.93;12.50;;;;;;;;;;5032893;28;20228;-65
2023/08/26 05:48:59;;;;;;;14.55;13.13;;;;;;;;;;5033306;28;20347;-65
2023/08/26 05:51:26;;;;;;;19.25;13.95;;;;;;;;;;5028850;28;20208;-64
2023/08/26 05:53:53;;;;;;;21.75;14.52;;;;;;;;;;5025002;28;20253;-65
2023/08/26 05:56:19;;;;;;;15.40;13.90;;;;;;;;;;5032701;28;20689;-64
2023/08/26 05:58:47;;;;;;;15.13;12.45;;;;;;;;;;5033039;28;20266;-65
2023/08/26 06:01:14;;;;;;;15.00;13.38;;;;;;;;;;5032119;28;20720;-65
2023/08/26 06:03:40;;;;;;;16.13;13.70;;;;;;;;;;5032755;28;20239;-65
2023/08/26 06:06:07;;;;;;;17.15;12.95;;;;;;;;;;5031897;28;20212;-65
2023/08/26 06:08:33;;;;;;;15.43;12.30;;;;;;;;;;5032331;28;20737;-66
2023/08/26 06:10:59;;;;;;;14.57;13.32;;;;;;;;;;5032309;28;20238;-66
2023/08/26 06:13:26;;;;;;;15.77;12.38;;;;;;;;;;5032743;28;20234;-66
2023/08/26 06:15:57;;;;;;;13.27;12.05;;;;;;;;;;5032171;28;20224;-66
2023/08/26 06:18:23;;;;;;;13.43;12.35;;;;;;;;;;5032421;28;20196;-66
2023/08/26 06:20:50;;;;;;;13.90;12.38;;;;;;;;;;5031494;28;20293;-65
2023/08/26 06:23:17;;;;;;;12.85;11.85;;;;;;;;;;5032438;28;20207;-65
2023/08/26 06:25:50;;;;;;;13.00;12.00;;;;;;;;;;5031908;28;20204;-67
2023/08/26 06:28:17;;;;;;;12.18;11.38;;;;;;;;;;5031941;28;20242;-66
2023/08/26 06:30:43;;;;;;;13.43;11.32;;;;;;;;;;5032328;28;20239;-67
2023/08/26 06:33:11;;;;;;;12.70;11.60;;;;;;;;;;5031777;28;20204;-67
2023/08/26 06:35:37;;;;;;;11.95;10.85;;;;;;;;;;5031918;28;20250;-67
2023/08/26 06:38:04;;;;;;;11.13;10.32;;;;;;;;;;5031653;28;20254;-67
2023/08/26 06:40:31;;;;;;;15.68;10.95;;;;;;;;;;5020191;28;20287;-66
2023/08/26 06:42:58;;;;;;;11.60;10.55;;;;;;;46.00;nan;95132.97;5031837;28;20286;-67
2023/08/26 06:45:25;;;;;;;15.05;10.95;;;;;;;46.07;nan;95123.53;5032038;28;20285;-66
2023/08/26 06:47:52;;;;;;;12.85;11.20;;;;;;;;;;5031320;28;20231;-66
2023/08/26 06:50:20;;;;;;;11.77;10.57;;;;;;;;;;5031725;28;20270;-66
2023/08/26 06:52:47;;;;;;;10.80;10.05;;;;;;;;;;5030493;28;20780;-67
2023/08/26 06:55:14;;;;;;;11.77;9.82;;;;;;;;;;5030326;28;20203;-67
2023/08/26 06:57:40;;;;;;;10.38;9.48;;;;;;;;;;5030657;28;20230;-66
2023/08/26 07:00:08;;;;;;;9.73;8.70;;;;;;;;;;5040921;28;20199;-65
2023/08/26 07:02:34;;;;;;;11.10;9.75;;;;;;;;;;5029064;28;20269;-65
2023/08/26 07:05:01;;;;;;;10.02;9.40;;;;;;;;;;5029724;28;20231;-65
2023/08/26 07:07:29;;;;;;;11.27;9.52;;;;;;;;;;5029059;28;20207;-67
2023/08/26 07:09:55;;;;;;;10.73;9.68;;;;;;;;;;5029756;28;20258;-67
2023/08/26 07:12:22;;;;;;;9.57;8.77;;;;;;;;;;5029760;28;20676;-66
2023/08/26 07:14:48;;;;;;;10.45;8.65;;;;;;;;;;5030194;28;20646;-67
2023/08/26 07:17:15;;;;;;;11.05;8.57;;;;;;;;;;5031076;28;20797;-67
2023/08/26 07:19:42;;;;;;;12.20;8.60;;;;;;;;;;5031136;28;20256;-67
2023/08/26 07:22:09;;;;;;;14.48;8.82;;;;;;;;;;5030898;28;20699;-66
2023/08/26 07:24:37;;;;;;;10.20;8.55;;;;;;;;;;5031618;28;20207;-67
2023/08/26 07:27:03;;;;;;;15.75;8.88;;;;;;;;;;5030667;28;20591;-67
2023/08/26 07:29:31;;;;;;;9.75;9.10;;;;;;;;;;5031115;28;20255;-66
2023/08/26 07:31:58;;;;;;;9.30;8.65;;;;;;;;;;5030180;28;20199;-66
2023/08/26 07:34:24;;;;;;;12.52;7.93;;;;;;;;;;5031374;28;20207;-66
2023/08/26 07:36:51;;;;;;;8.70;8.10;;;;;;;;;;5031015;28;20203;-66
2023/08/26 07:39:18;;;;;;;15.65;9.55;;;;;;;;;;5030981;28;20195;-67
2023/08/26 07:41:46;;;;;;;9.82;8.90;;;;;;;;;;5031097;28;20264;-66
2023/08/26 07:44:12;;;;;;;12.27;10.45;;;;;;;;;;5030555;28;20223;-67
2023/08/26 07:46:39;;;;;;;10.23;9.15;;;;;;;;;;5030613;28;20317;-67
2023/08/26 07:49:05;;;;;;;9.52;8.73;;;;;;;;;;5040425;28;20234;-66
2023/08/26 07:51:32;;;;;;;10.80;9.13;;;;;;;;;;5032246;28;20296;-67
2023/08/26 07:53:58;;;;;;;9.55;8.75;;;;;;;;;;5030604;28;20227;-66
2023/08/26 07:56:24;;;;;;;12.50;8.38;;;;;;;;;;5030675;28;20265;-66
2023/08/26 07:58:52;;;;;;;11.32;8.90;;;;;;;;;;5031042;28;20203;-66
2023/08/26 08:01:19;;;;;;;14.63;8.70;;;;;;;;;;5030262;28;20723;-66
2023/08/26 08:03:45;;;;;;;17.25;10.05;;;;;;;;;;5030656;28;20590;-66
2023/08/26 08:06:12;;;;;;;19.05;8.98;;;;;;;;;;5030424;28;20273;-65
2023/08/26 08:08:38;;;;;;;9.18;8.45;;;;;;;;;;5030233;28;20227;-66
2023/08/26 08:11:04;;;;;;;9.45;8.30;;;;;;;;;;5030416;28;20199;-65
2023/08/26 08:13:32;;;;;;;9.85;8.98;;;;;;;;;;5030340;28;20207;-66
2023/08/26 08:15:59;;;;;;;12.75;8.18;;;;;;;;;;5029831;28;20587;-66
2023/08/26 08:18:26;;;;;;;9.93;8.95;;;;;;;;;;5030026;28;20203;-66
2023/08/26 08:20:53;;;;;;;9.30;8.68;;;;;;;;;;5029705;28;20195;-65
2023/08/26 08:23:19;;;;;;;8.75;8.02;;;;;;;;;;5030307;28;20225;-66
2023/08/26 08:25:46;;;;;;;8.80;7.97;;;;;;;;;;5029658;28;20203;-66
2023/08/26 08:28:12;;;;;;;10.18;7.80;;;;;;;;;;5030376;28;20203;-66
2023/08/26 08:30:39;;;;;;;11.13;8.30;;;;;;;;;;5029470;28;20763;-66
2023/08/26 08:33:06;;;;;;;8.88;8.07;;;;;;;;;;5030048;28;20207;-67
2023/08/26 08:35:33;;;;;;;8.77;7.80;;;;;;;;;;5029551;28;20235;-66
2023/08/26 08:37:59;;;;;;;9.27;8.20;;;;;;;;;;5029899;28;20207;-67
2023/08/26 08:40:26;;;;;;;14.93;8.35;;;;;;;;;;5029989;28;20257;-66
2023/08/26 08:42:53;;;;;;;9.60;8.77;;;;;;;;;;5029385;28;20256;-66
2023/08/26 08:45:20;;;;;;;8.18;7.47;;;;;;;;;;5029391;28;21688;-65
2023/08/26 08:47:47;;;;;;;7.88;7.25;;;;;;;;;;5029369;28;20771;-66
2023/08/26 08:50:15;;;;;;;8.23;7.15;;;;;;;;;;5029651;28;20446;-66
2023/08/26 08:52:43;;;;;;;7.68;6.75;;;;;;;;;;5026702;28;20220;-66
2023/08/26 08:55:09;;;;;;;7.40;6.65;;;;;;;;;;5028503;28;20202;-65
2023/08/26 08:57:36;;;;;;;8.02;7.55;;;;;;;;;;5027915;28;20243;-65
2023/08/26 09:00:06;;;;;;;8.57;7.78;;;;;;;;;;5028019;28;20253;-65
2023/08/26 09:02:32;;;;;;;8.10;7.50;;;;;;;;;;5027797;28;20293;-65
2023/08/26 09:04:59;;;;;;;8.50;7.90;;;;;;;;;;5028210;28;20666;-66
2023/08/26 09:07:28;;;;;;;8.70;7.45;;;;;;;;;;5027918;28;20294;-67
2023/08/26 09:09:56;;;;;;;8.38;7.65;;;;;;;;;;5027687;28;20235;-66
2023/08/26 09:12:23;;;;;;;9.00;8.20;;;;;;;;;;5029758;28;20209;-65
2023/08/26 09:14:49;;;;;;;9.07;8.32;;;;;;;;;;5029512;28;20227;-66
2023/08/26 09:17:16;;;;;;;8.25;7.72;;;;;;;;;;5029378;28;20633;-65
2023/08/26 09:19:51;;;;;;;9.25;8.35;;;;;;;;;;5029852;28;20290;-65
2023/08/26 09:22:19;;;;;;;8.63;8.13;;;;;;;;;;5029436;28;20249;-66
2023/08/26 09:24:47;;;;;;;8.57;7.85;;;;;;;;;;5030068;28;20263;-66
2023/08/26 09:27:15;;;;;;;9.15;8.45;;;;;;;;;;5029102;28;20257;-66
2023/08/26 09:29:41;;;;;;;9.40;8.70;;;;;;;;;;5030055;28;20231;-66
2023/08/26 09:32:08;;;;;;;9.27;8.35;;;;;;;;;;5028666;28;20282;-65
2023/08/26 09:34:34;;;;;;;8.90;8.13;;;;;;;;;;5029330;28;20677;-67
2023/08/26 09:37:01;;;;;;;10.38;9.50;;;;;;;;;;5029617;28;20234;-65
2023/08/26 09:39:27;;;;;;;9.63;8.80;;;;;;;;;;5029456;28;20249;-66
2023/08/26 09:41:56;;;;;;;9.45;8.80;;;;;;;;;;5029515;28;20234;-66
2023/08/26 09:44:23;;;;;;;9.77;8.55;;;;;;;;;;5022362;28;20231;-66
2023/08/26 09:46:49;;;;;;;9.85;8.90;;;;;;;;;;5029139;28;20266;-66
2023/08/26 09:49:18;;;;;;;9.18;8.57;;;;;;;34.98;nan;95044.00;5028845;28;20697;-66
2023/08/26 09:51:48;;;;;;;9.63;8.75;;;;;;;;;;5029111;28;20262;-66
2023/08/26 09:54:16;;;;;;;10.05;9.05;;;;;;;;;;5030800;28;20763;-66
2023/08/26 09:56:42;;;;;;;15.32;9.38;;;;;;;;;;5032721;28;20770;-66
2023/08/26 09:59:10;;;;;;;8.95;8.43;;;;;;;;;;5032665;28;20289;-66
2023/08/26 10:01:38;;;;;;;10.77;9.75;;;;;;;;;;5032400;28;20559;-66
2023/08/26 10:04:08;;;;;;;10.98;9.88;;;;;;;;;;5032834;28;20227;-66
2023/08/26 10:06:37;;;;;;;9.80;9.00;;;;;;;;;;5032756;28;20204;-65
2023/08/26 10:09:07;;;;;;;9.40;8.70;;;;;;;;;;5032574;28;20200;-65
2023/08/26 10:11:36;;;;;;;9.50;8.90;;;;;;;;;;5032594;28;20314;-66
2023/08/26 10:14:03;;;;;;;8.02;7.43;;;;;;;;;;5032104;28;20202;-66
2023/08/26 10:16:31;;;;;;;8.25;7.65;;;;;;;;;;5032568;28;20210;-66
2023/08/26 10:18:58;;;;;;;8.38;7.78;;;;;;;;;;5032298;28;20207;-66
2023/08/26 10:21:25;;;;;;;12.60;8.77;;;;;;;;;;5032481;28;20195;-65
2023/08/26 10:23:51;;;;;;;9.27;7.53;;;;;;;;;;5031693;28;20208;-66
2023/08/26 10:26:19;;;;;;;8.52;7.78;;;;;;;;;;5032475;28;20236;-67
2023/08/26 10:28:46;;;;;;;8.13;7.63;;;;;;;;;;5031514;28;20693;-65
2023/08/26 10:31:14;;;;;;;9.10;8.20;;;;;;;;;;5031900;28;20318;-65
2023/08/26 10:34:01;;;;;;;9.68;8.85;;;;;;;;;;5031811;28;20235;-65
2023/08/26 10:36:27;;;;;;;8.73;8.07;;;;;;;;;;5031936;28;20239;-65
2023/08/26 10:38:57;;;;;;;8.10;7.50;;;;;;;;;;5032310;28;20204;-66
2023/08/26 10:41:24;;;;;;;8.43;7.80;;;;;;;;;;5031473;28;20665;-65
2023/08/26 10:43:53;;;;;;;8.93;8.20;;;;;;;;;;5032091;28;20258;-67
2023/08/26 10:46:31;;;;;;;9.40;8.75;;;;;;;;;;5032748;28;20231;-66
2023/08/26 10:48:57;;;;;;;8.25;7.65;;;;;;;;;;5041630;28;20203;-67
2023/08/26 10:51:25;;;;;;;8.55;7.95;;;;;;;;;;5031814;28;20230;-66
2023/08/26 10:53:52;;;;;;;10.00;9.18;;;;;;;;;;5031524;28;20278;-66
2023/08/26 10:56:21;;;;;;;9.65;8.20;;;;;;;;;;5031901;28;20211;-66
2023/08/26 10:58:48;;;;;;;7.90;7.40;;;;;;;;;;5031642;28;20199;-66
2023/08/26 11:01:15;;;;;;;9.27;8.65;;;;;;;;;;5031155;28;20200;-66
2023/08/26 11:03:43;;;;;;;9.07;8.13;;;;;;;;;;5031685;28;20263;-65
2023/08/26 11:06:11;;;;;;;9.07;8.38;;;;;;;;;;5031657;28;20632;-65
2023/08/26 11:08:39;;;;;;;9.15;8.18;;;;;;;;;;5031512;28;20269;-66
2023/08/26 11:11:05;;;;;;;9.38;8.30;;;;;;;;;;5031388;28;20219;-66
2023/08/26 11:13:32;;;;;;;9.23;8.57;;;;;;;;;;5031604;28;20219;-66
2023/08/26 11:15:58;;;;;;;8.68;7.85;;;;;;;;;;5031022;28;20658;-66
2023/08/26 11:18:25;;;;;;;8.68;8.18;;;;;;;;;;5031345;28;20286;-66
2023/08/26 11:20:52;;;;;;;9.05;8.25;;;;;;;;;;5031076;28;20199;-65
2023/08/26 11:23:19;;;;;;;9.82;8.60;;;;;;;;;;5031459;28;20269;-65
2023/08/26 11:25:46;;;;;;;10.60;9.25;;;;;;;;;;5030508;28;20334;-65
2023/08/26 11:28:14;;;;;;;14.13;12.85;;;;;;;;;;5031119;28;20630;-65
2023/08/26 11:30:41;;;;;;;12.20;8.93;;;;;;;;;;5030810;28;20725;-65
2023/08/26 11:33:09;;;;;;;9.52;8.85;;;;;;;;;;5031012;28;20207;-66
2023/08/26 11:35:37;;;;;;;9.68;9.07;;;;;;;;;;5030857;28;20295;-64
2023/08/26 11:38:03;;;;;;;9.43;8.70;;;;;;;;;;5030767;28;20330;-66
2023/08/26 11:40:32;;;;;;;10.60;9.70;;;;;;;;;;5030551;28;20262;-65
2023/08/26 11:43:00;;;;;;;9.40;8.80;;;;;;;;;;5030541;28;20638;-66
2023/08/26 11:45:26;;;;;;;9.80;8.93;;;;;;;;;;5019628;28;20207;-64
2023/08/26 11:47:53;;;;;;;13.13;8.82;;;;;;;;;;5030430;28;20605;-64
2023/08/26 11:50:20;;;;;;;9.40;8.63;;;;;;;;;;5030481;28;20227;-64
2023/08/26 11:52:46;;;;;;;9.27;8.68;;;;;;;;;;5030501;28;20251;-66
2023/08/26 11:55:13;;;;;;;9.60;8.77;;;;;;;;;;5030740;28;20231;-65
2023/08/26 11:57:40;;;;;;;9.93;9.35;;;;;;;;;;5030006;28;20203;-66
2023/08/26 12:00:10;;;;;;;10.25;9.27;;;;;;;;;;5030827;28;20214;-65
2023/08/26 12:02:36;;;;;;;12.00;9.05;;;;;;;;;;5030181;28;20727;-64
2023/08/26 12:05:03;;;;;;;10.02;9.40;;;;;;;;;;5030936;28;20261;-65
2023/08/26 12:07:30;;;;;;;9.27;8.35;;;;;;;;;;5030366;28;20269;-65
2023/08/26 12:09:57;;;;;;;9.98;9.02;;;;;;;;;;5030475;28;20231;-65
2023/08/26 12:12:25;;;;;;;18.30;16.10;;;;;;;;;;5029979;28;21433;-65
2023/08/26 12:14:51;;;;;;;9.55;8.85;;;;;;;;;;5030640;28;20231;-65
2023/08/26 12:17:19;;;;;;;10.85;9.95;;;;;;;;;;5029576;28;20204;-66
2023/08/26 12:19:46;;;;;;;7.78;7.05;;;;;;;;;;5030584;28;20203;-66
2023/08/26 12:22:12;;;;;;;16.38;7.38;;;;;;;;;;5030318;28;20669;-66
2023/08/26 12:24:39;;;;;;;7.68;7.03;;;;;;;;;;5029861;28;20242;-65
2023/08/26 12:27:09;;;;;;;7.50;7.10;;;;;;;;;;5029799;28;20203;-66
2023/08/26 12:29:35;;;;;;;6.60;6.10;;;;;;;;;;5030171;28;20207;-65
2023/08/26 12:32:01;;;;;;;8.05;7.55;;;;;;;;;;5029748;28;20251;-65
2023/08/26 12:34:29;;;;;;;7.20;6.80;;;;;;;;;;5030420;28;20239;-65
2023/08/26 12:36:56;;;;;;;6.82;6.22;;;;;;;;;;5030011;28;20199;-65
2023/08/26 12:39:23;;;;;;;6.00;5.53;;;;;;;;;;5029918;28;20195;-66
2023/08/26 12:41:49;;;;;;;7.05;6.05;;;;;;;;;;5030101;28;20593;-65
2023/08/26 12:44:16;;;;;;;6.53;5.97;;;;;;;;;;5030309;28;20204;-65
2023/08/26 12:46:42;;;;;;;6.03;5.43;;;;;;;;;;5029466;28;20266;-66
2023/08/26 12:49:09;;;;;;;6.22;5.68;;;;;;;;;;5029913;28;20238;-65
2023/08/26 12:51:36;;;;;;;7.10;5.65;;;;;;;;;;5029216;28;20717;-65
2023/08/26 12:54:03;;;;;;;6.43;6.00;;;;;;;;;;5019685;28;20228;-66
2023/08/26 12:56:30;;;;;;;5.53;5.20;;;;;;;;;;5027603;28;20633;-66
2023/08/26 12:58:56;;;;;;;6.72;6.10;;;;;;;;;;5028393;28;20211;-65
2023/08/26 13:01:23;;;;;;;5.63;5.22;;;;;;;;;;5027586;28;20211;-65
2023/08/26 13:03:49;;;;;;;7.10;6.40;;;;;;;;;;5028008;28;20227;-65
2023/08/26 13:06:16;;;;;;;6.93;6.43;;;;;;;;;;5027129;28;20207;-65
2023/08/26 13:08:44;;;;;;;7.93;6.78;;;;;;;;;;5028239;28;20247;-65
2023/08/26 13:11:10;;;;;;;6.70;5.97;;;;;;;;;;5027335;28;20783;-65
2023/08/26 13:13:36;;;;;;;8.82;6.90;;;;;;;;;;5028087;28;20257;-65
2023/08/26 13:16:03;;;;;;;6.20;5.90;;;;;;;;;;5028194;28;20758;-65
2023/08/26 13:18:31;;;;;;;6.78;6.30;;;;;;;;;;5029641;28;20231;-65
2023/08/26 13:20:57;;;;;;;6.60;5.95;;;;;;;;;;5028928;28;20206;-65
2023/08/26 13:23:24;;;;;;;6.80;6.25;;;;;;;;;;5029085;28;20247;-66
2023/08/26 13:25:52;;;;;;;6.45;5.88;;;;;;;;;;5029415;28;20200;-65
2023/08/26 13:28:18;;;;;;;6.90;6.30;;;;;;;;;;5029458;28;20258;-65
2023/08/26 13:30:45;;;;;;;7.38;6.78;;;;;;;;;;5033467;28;20266;-65
2023/08/26 13:33:11;;;;;;;7.47;6.88;;;;;;;;;;5032859;28;20265;-65
2023/08/26 13:35:38;;;;;;;7.20;6.70;;;;;;;;;;5033300;28;20207;-64
2023/08/26 13:38:04;;;;;;;7.20;6.75;;;;;;;;;;5033217;28;20234;-65
2023/08/26 13:40:31;;;;;;;7.03;6.53;;;;;;;;;;5033209;28;20203;-65
2023/08/26 13:42:59;;;;;;;6.80;6.25;;;;;;;;;;5033043;28;20265;-65
2023/08/26 13:45:25;;;;;;;5.93;5.55;;;;;;;;;;5033447;28;20208;-65
2023/08/26 13:47:52;;;;;;;7.30;6.80;;;;;;;;;;5032201;28;20278;-65
2023/08/26 13:50:18;;;;;;;8.15;7.45;;;;;;;;;;5032971;28;20231;-65
2023/08/26 13:52:44;;;;;;;7.53;7.13;;;;;;;;;;5032420;28;20239;-65
2023/08/26 13:55:13;;;;;;;7.03;6.50;;;;;;;;;;5033249;28;20199;-65
2023/08/26 13:57:40;;;;;;;7.13;6.57;;;;;;;;;;5032354;28;20207;-65
2023/08/26 14:00:08;;;;;;;8.20;7.53;;;;;;;;;;5032885;28;20204;-65
2023/08/26 14:02:35;;;;;;;7.30;6.90;;;;;;;;;;5032480;28;20208;-65
2023/08/26 14:05:01;;;;;;;6.82;6.43;;;;;;;;;;5033226;28;20330;-64
2023/08/26 14:07:28;;;;;;;8.15;7.43;;;;;;;;;;5032577;28;20200;-64
2023/08/26 14:09:54;;;;;;;7.60;7.10;;;;;;;;;;5032570;28;20212;-65
2023/08/26 14:12:21;;;;;;;7.20;6.70;;;;;;;;;;5032328;28;20262;-66
2023/08/26 14:14:47;;;;;;;8.07;7.20;;;;;;;;;;5032558;28;20204;-67
2023/08/26 14:17:15;;;;;;;8.88;8.05;;;;;;;;;;5032397;28;20223;-66
2023/08/26 14:19:41;;;;;;;8.02;7.53;;;;;;;;;;5032107;28;20203;-64
2023/08/26 14:22:08;;;;;;;8.45;7.85;;;;;;;;;;5032113;28;20203;-66
2023/08/26 14:24:34;;;;;;;8.57;7.75;;;;;;;;;;5032290;28;20265;-66